Ilford, Canada
Current Conditions -  °F | °C
As of 10:00 AM on Friday 28 Nov 2014 (Local Time) from CYGX Reporting Station
Few Clouds Few Clouds  
Wind Chill: -39°   Ceiling: Unl
Heat Index: -29°   Visibility: 15mi
Dew Point: -33°   Wind: 8mph
Humidity: 69%   Direction: 280°W
Pressure: 30.1"   Gusts: NA
Location:  56.04°N, 95.58°W
Report Text: CYGX 281600Z 28007KT 15SM FEW200 M29/M33 A3010 RMK CI1 SLP215
Loading
Personal Weather Stations






























Interactive Weather Map New forecast layout! Learn more

10-Day Weather Forecast

Advertisements
Track Severe Weather on mobile